Time;durP1;ratioP1;P1;durP2;ratioP2;P2;SDS_P1;SDS_P2;PMS_P1;PMS_P2;Temp;Humidity;BMP_temperature;BMP_pressure;BME280_temperature;BME280_humidity;BME280_pressure;Samples;Min_cycle;Max_cycle;Signal;HPM_P1;HPM_P2
2023/07/17 00:01:29;;;;;;;;;;;;;;;;;;5018631;28;4655;-68
2023/07/17 00:03:54;;;;;;;;;;;;;;;;;;5008147;28;4909;-67
2023/07/17 00:06:19;;;;;;;;;;;;;;;;;;5023164;28;1128;-67
2023/07/17 00:08:45;;;;;;;;;;;;;;;;;;5019211;28;5025;-67
2023/07/17 00:11:10;;;;;;;;;;;;;;;;;;5027140;28;4986;-68
2023/07/17 00:13:35;;;;;;;;;;;;;;;;;;5026940;28;5253;-68
2023/07/17 00:16:00;;;;;;;;;;;;;;;;;;5026848;28;4486;-67
2023/07/17 00:18:26;;;;;;;;;;;;;;;;;;5025817;28;1686;-67
2023/07/17 00:20:51;;;;;;;;;;;;;;;;;;5026801;28;5021;-67
2023/07/17 00:23:16;;;;;;;;;;;;;;;;;;5026853;28;5122;-67
2023/07/17 00:25:41;;;;;;;;;;;;;;;;;;5026731;28;5013;-67
2023/07/17 00:28:06;;;;;;;;;;;;;;;;;;5026812;28;5028;-68
2023/07/17 00:30:32;;;;;;;;;;;;;;;;;;5025755;28;1329;-67
2023/07/17 00:32:57;;;;;;;;;;;;;;;;;;5022165;28;4919;-67
2023/07/17 00:35:22;;;;;;;;;;;;;;;;;;5006860;28;4857;-67
2023/07/17 00:37:48;;;;;;;;;;;;;;;;;;5006897;28;5154;-67
2023/07/17 00:40:13;;;;;;;;;;;;;;;;;;5005584;28;5074;-67
2023/07/17 00:42:38;;;;;;;;;;;;;;;;;;5006565;28;5072;-67
2023/07/17 00:45:05;;;;;;;;;;;;;;;;;;5006223;28;1914;-67
2023/07/17 00:47:30;;;;;;;;;;;;;;;;;;5022202;28;5243;-67
2023/07/17 00:49:55;;;;;;;;;;;;;;;;;;5024515;28;4961;-67
2023/07/17 00:52:21;;;;;;;;;;;;;;;;;;5025322;28;5156;-67
2023/07/17 00:54:46;;;;;;;;;;;;;;;;;;5026331;28;4638;-67
2023/07/17 00:57:12;;;;;;;;;;;;;;;;;;5024764;28;1230;-67
2023/07/17 00:59:37;;;;;;;;;;;;;;;;;;5026720;28;4965;-67
2023/07/17 01:02:03;;;;;;;;;;;;;;;;;;5026851;28;4926;-68
2023/07/17 01:04:28;;;;;;;;;;;;;;;;;;5022817;28;5074;-67
2023/07/17 01:06:53;;;;;;;;;;;;;;;;;;5027205;28;5165;-68
2023/07/17 01:09:20;;;;;;;;;;;;;;;;;;5027066;28;1169;-68
2023/07/17 01:11:45;;;;;;;;;;;;;;;;;;5025324;28;5099;-68
2023/07/17 01:14:14;;;;;;;;;;;;;;;;;;5026821;28;4977;-68
2023/07/17 01:16:39;;;;;;;;;;;;;;;;;;5026199;28;4714;-67
2023/07/17 01:19:04;;;;;;;;;;;;;;;;;;5026301;28;4467;-67
2023/07/17 01:21:29;;;;;;;;;;;;;;;;;;5026878;28;1085;-67
2023/07/17 01:23:56;;;;;;;;;;;;;;;;;;5025343;28;5051;-67
2023/07/17 01:26:22;;;;;;;;;;;;;;;;;;5026487;28;5001;-67
2023/07/17 01:28:47;;;;;;;;;;;;;;;;;;5027368;28;4834;-67
2023/07/17 01:31:12;;;;;;;;;;;;;;;;;;5026882;28;5087;-67
2023/07/17 01:33:38;;;;;;;;;;;;;;;;;;5022977;28;5177;-66
2023/07/17 01:36:03;;;;;;;;;;;;;;;;;;5030326;28;1446;-67
2023/07/17 01:38:29;;;;;;;;;;;;;;;;;;5029582;28;4498;-67
2023/07/17 01:40:54;;;;;;;;;;;;;;;;;;5029969;28;4915;-67
2023/07/17 01:43:19;;;;;;;;;;;;;;;;;;5029765;28;5212;-67
2023/07/17 01:45:45;;;;;;;;;;;;;;;;;;5029954;28;5047;-67
2023/07/17 01:48:10;;;;;;;;;;;;;;;;;;5029873;28;1584;-67
2023/07/17 01:50:35;;;;;;;;;;;;;;;;;;5029565;28;5052;-67
2023/07/17 01:53:00;;;;;;;;;;;;;;;;;;5028553;28;5108;-67
2023/07/17 01:55:26;;;;;;;;;;;;;;;;;;5027395;28;4605;-67
2023/07/17 01:57:51;;;;;;;;;;;;;;;;;;5029958;28;4933;-67
2023/07/17 02:00:17;;;;;;;;;;;;;;;;;;5029681;28;1316;-67
2023/07/17 02:02:43;;;;;;;;;;;;;;;;;;5029104;28;4998;-67
2023/07/17 02:05:08;;;;;;;;;;;;;;;;;;5029224;28;4568;-68
2023/07/17 02:07:33;;;;;;;;;;;;;;;;;;5029463;28;4454;-67
2023/07/17 02:09:59;;;;;;;;;;;;;;;;;;5029647;28;4978;-67
2023/07/17 02:12:24;;;;;;;;;;;;;;;;;;5021307;28;1257;-68
2023/07/17 02:14:49;;;;;;;;;;;;;;;;;;5029120;28;4983;-68
2023/07/17 02:17:14;;;;;;;;;;;;;;;;;;5028779;28;5011;-67
2023/07/17 02:19:40;;;;;;;;;;;;;;;;;;5026216;28;4443;-68
2023/07/17 02:22:05;;;;;;;;;;;;;;;;;;5022642;28;4669;-68
2023/07/17 02:24:31;;;;;;;;;;;;;;;;;;5010103;28;1982;-67
2023/07/17 02:26:58;;;;;;;;;;;;;;;;;;5028030;28;4810;-67
2023/07/17 02:29:24;;;;;;;;;;;;;;;;;;5029375;28;4751;-67
2023/07/17 02:31:49;;;;;;;;;;;;;;;;;;5029031;28;5182;-67
2023/07/17 02:34:14;;;;;;;;;;;;;;;;;;5018320;28;5124;-67
2023/07/17 02:36:40;;;;;;;;;;;;;;;;;;5009637;28;4620;-67
2023/07/17 02:39:05;;;;;;;;;;;;;;;;;;5029673;28;1140;-67
2023/07/17 02:41:30;;;;;;;;;;;;;;;;;;5027642;28;4848;-67
2023/07/17 02:43:56;;;;;;;;;;;;;;;;;;5028635;28;4956;-68
2023/07/17 02:46:21;;;;;;;;;;;;;;;;;;5028829;28;5019;-67
2023/07/17 02:48:46;;;;;;;;;;;;;;;;;;5028100;28;5060;-67
2023/07/17 02:51:11;;;;;;;;;;;;;;;;;;5027391;28;2224;-67
2023/07/17 02:53:37;;;;;;;;;;;;;;;;;;5021694;28;4631;-67
2023/07/17 02:56:02;;;;;;;;;;;;;;;;;;5017055;28;4538;-67
2023/07/17 02:58:28;;;;;;;;;;;;;;;;;;5026155;28;5082;-68
2023/07/17 03:00:53;;;;;;;;;;;;;;;;;;5023462;28;4700;-68
2023/07/17 03:03:18;;;;;;;;;;;;;;;;;;5026559;28;4805;-68
2023/07/17 03:05:43;;;;;;;;;;;;;;;;;;5026832;28;5113;-67
2023/07/17 03:08:09;;;;;;;;;;;;;;;;;;5028368;28;4612;-67
2023/07/17 03:10:34;;;;;;;;;;;;;;;;;;5023427;28;5155;-67
2023/07/17 03:12:59;;;;;;;;;;;;;;;;;;5028053;28;4856;-67
2023/07/17 03:15:24;;;;;;;;;;;;;;;;;;5025142;28;3253;-67
2023/07/17 03:17:50;;;;;;;;;;;;;;;;;;5023869;28;4469;-67
2023/07/17 03:20:17;;;;;;;;;;;;;;;;;;5027676;28;4980;-67
2023/07/17 03:22:42;;;;;;;;;;;;;;;;;;5026363;28;4915;-66
2023/07/17 03:25:07;;;;;;;;;;;;;;;;;;5022691;28;5012;-67
2023/07/17 03:27:33;;;;;;;;;;;;;;;;;;5022453;28;3645;-68
2023/07/17 03:29:58;;;;;;;;;;;;;;;;;;5022846;28;4912;-68
2023/07/17 03:32:23;;;;;;;;;;;;;;;;;;5025812;28;5019;-68
2023/07/17 03:34:48;;;;;;;;;;;;;;;;;;5022428;28;4641;-67
2023/07/17 03:37:13;;;;;;;;;;;;;;;;;;5020547;28;5081;-67
2023/07/17 03:39:39;;;;;;;;;;;;;;;;;;5023587;28;5079;-66
2023/07/17 03:42:10;;;;;;;;;;;;;;;;;;5021328;28;3696;-67
2023/07/17 03:44:35;;;;;;;;;;;;;;;;;;5024821;28;5060;-67
2023/07/17 03:47:00;;;;;;;;;;;;;;;;;;5018220;28;5095;-67
2023/07/17 03:49:26;;;;;;;;;;;;;;;;;;5023997;28;4622;-67
2023/07/17 03:51:51;;;;;;;;;;;;;;;;;;5022628;28;4497;-66
2023/07/17 03:54:16;;;;;;;;;;;;;;;;;;5024646;28;3679;-67
2023/07/17 03:56:41;;;;;;;;;;;;;;;;;;5024906;28;5142;-67
2023/07/17 03:59:06;;;;;;;;;;;;;;;;;;5027236;28;4834;-68
2023/07/17 04:01:32;;;;;;;;;;;;;;;;;;5025000;28;5115;-68
2023/07/17 04:03:57;;;;;;;;;;;;;;;;;;5025728;28;4896;-67
2023/07/17 04:06:22;;;;;;;;;;;;;;;;;;5027874;28;2090;-68
2023/07/17 04:08:48;;;;;;;;;;;;;;;;;;5025740;28;5073;-67
2023/07/17 04:11:14;;;;;;;;;;;;;;;;;;5026210;28;4956;-67
2023/07/17 04:13:39;;;;;;;;;;;;;;;;;;5025710;28;5003;-67
2023/07/17 04:16:05;;;;;;;;;;;;;;;;;;5024544;28;4529;-68
2023/07/17 04:18:30;;;;;;;;;;;;;;;;;;5026433;28;1432;-67
2023/07/17 04:20:55;;;;;;;;;;;;;;;;;;5019223;28;4952;-67
2023/07/17 04:23:20;;;;;;;;;;;;;;;;;;5026889;28;4967;-67
2023/07/17 04:25:46;;;;;;;;;;;;;;;;;;5027116;28;4926;-68
2023/07/17 04:28:11;;;;;;;;;;;;;;;;;;5023072;28;4960;-68
2023/07/17 04:30:36;;;;;;;;;;;;;;;;;;5021447;28;5163;-66
2023/07/17 04:33:02;;;;;;;;;;;;;;;;;;5025993;28;3541;-67
2023/07/17 04:35:27;;;;;;;;;;;;;;;;;;5026356;28;4643;-67
2023/07/17 04:37:54;;;;;;;;;;;;;;;;;;5025119;28;4690;-67
2023/07/17 04:40:19;;;;;;;;;;;;;;;;;;5021563;28;5093;-68
2023/07/17 04:42:44;;;;;;;;;;;;;;;;;;5022110;28;4506;-67
2023/07/17 04:45:11;;;;;;;;;;;;;;;;;;5020877;28;3783;-68
2023/07/17 04:47:36;;;;;;;;;;;;;;;;;;5017063;28;4998;-63
2023/07/17 04:50:02;;;;;;;;;;;;;;;;;;5020214;28;4501;-65
2023/07/17 04:52:27;;;;;;;;;;;;;;;;;;5026478;28;4714;-65
2023/07/17 04:54:52;;;;;;;;;;;;;;;;;;5019500;28;5094;-63
2023/07/17 04:57:17;;;;;;;;;;;;;;;;;;5024496;28;3641;-63
2023/07/17 04:59:43;;;;;;;;;;;;;;;;;;5018896;28;4511;-62
2023/07/17 05:02:08;;;;;;;;;;;;;;;;;;5024033;28;5117;-63
2023/07/17 05:04:33;;;;;;;;;;;;;;;;;;5020632;28;4969;-63
2023/07/17 05:06:58;;;;;;;;;;;;;;;;;;5026801;28;4768;-63
2023/07/17 05:09:24;;;;;;;;;;;;;;;;;;5029152;28;1094;-64
2023/07/17 05:11:49;;;;;;;;;;;;;;;;;;5029326;28;4981;-63
2023/07/17 05:14:15;;;;;;;;;;;;;;;;;;5027861;28;4488;-63
2023/07/17 05:16:40;;;;;;;;;;;;;;;;;;5028909;28;5051;-63
2023/07/17 05:19:05;;;;;;;;;;;;;;;;;;5027904;28;5349;-63
2023/07/17 05:21:31;;;;;;;;;;;;;;;;;;5030255;28;1327;-63
2023/07/17 05:23:57;;;;;;;;;;;;;;;;;;5030354;28;4605;-63
2023/07/17 05:26:22;;;;;;;;;;;;;;;;;;5030227;28;4673;-65
2023/07/17 05:28:48;;;;;;;;;;;;;;;;;;5030084;28;5344;-63
2023/07/17 05:31:13;;;;;;;;;;;;;;;;;;5030294;28;5076;-64
2023/07/17 05:33:38;;;;;;;;;;;;;;;;;;5030136;28;4644;-63
2023/07/17 05:36:03;;;;;;;;;;;;;;;;;;5030345;28;1097;-62
2023/07/17 05:38:29;;;;;;;;;;;;;;;;;;5030240;28;4448;-64
2023/07/17 05:40:58;;;;;;;;;;;;;;;;;;5030206;28;5368;-64
2023/07/17 05:43:23;;;;;;;;;;;;;;;;;;5030701;28;4987;-63
2023/07/17 05:45:48;;;;;;;;;;;;;;;;;;5025530;28;4473;-64
2023/07/17 05:48:14;;;;;;;;;;;;;;;;;;5021978;28;1691;-64
2023/07/17 05:50:39;;;;;;;;;;;;;;;;;;5029425;28;4963;-64
2023/07/17 05:53:04;;;;;;;;;;;;;;;;;;5030010;28;4510;-64
2023/07/17 05:55:29;;;;;;;;;;;;;;;;;;5025138;28;5113;-64
2023/07/17 05:57:55;;;;;;;;;;;;;;;;;;5029728;28;5062;-64
2023/07/17 06:00:20;;;;;;;;;;;;;;;;;;5028675;28;2517;-64
2023/07/17 06:02:45;;;;;;;;;;;;;;;;;;5022171;28;5226;-64
2023/07/17 06:05:11;;;;;;;;;;;;;;;;;;5029225;28;4479;-64
2023/07/17 06:07:37;;;;;;;;;;;;;;;;;;5022924;28;4878;-64
2023/07/17 06:10:02;;;;;;;;;;;;;;;;;;5029457;28;5980;-63
2023/07/17 06:12:27;;;;;;;;;;;;;;;;;;5029689;28;1227;-64
2023/07/17 06:14:52;;;;;;;;;;;;;;;;;;5027781;28;4976;-64
2023/07/17 06:17:18;;;;;;;;;;;;;;;;;;5027954;28;5220;-64
2023/07/17 06:19:43;;;;;;;;;;;;;;;;;;5029175;28;4554;-63
2023/07/17 06:22:08;;;;;;;;;;;;;;;;;;5028742;28;5089;-64
2023/07/17 06:24:33;;;;;;;;;;;;;;;;;;5029198;28;1913;-64
2023/07/17 06:26:59;;;;;;;;;;;;;;;;;;5028472;28;4591;-64
2023/07/17 06:29:25;;;;;;;;;;;;;;;;;;5029089;28;4460;-64
2023/07/17 06:31:50;;;;;;;;;;;;;;;;;;5028752;28;4966;-63
2023/07/17 06:34:15;;;;;;;;;;;;;;;;;;5028890;28;4461;-64
2023/07/17 06:36:41;;;;;;;;;;;;;;;;;;5028536;28;4483;-63
2023/07/17 06:39:07;;;;;;;;;;;;;;;;;;5027876;28;1235;-64
2023/07/17 06:41:32;;;;;;;;;;;;;;;;;;5028203;28;5252;-63
2023/07/17 06:43:57;;;;;;;;;;;;;;;;;;5028626;28;5024;-63
2023/07/17 06:46:22;;;;;;;;;;;;;;;;;;5017821;28;5096;-64
2023/07/17 06:48:48;;;;;;;;;;;;;;;;;;5028028;28;5106;-64
2023/07/17 06:51:13;;;;;;;;;;;;;;;;;;5029014;28;1414;-64
2023/07/17 06:53:38;;;;;;;;;;;;;;;;;;5028160;28;4940;-64
2023/07/17 06:56:04;;;;;;;;;;;;;;;;;;5025080;28;5408;-64
2023/07/17 06:58:29;;;;;;;;;;;;;;;;;;5027923;28;4835;-64
2023/07/17 07:00:57;;;;;;;;;;;;;;;;;;5027768;28;5069;-64
2023/07/17 07:03:23;;;;;;;;;;;;;;;;;;5028687;28;5053;-64
2023/07/17 07:05:59;;;;;;;;;;;;;;;;;;5027728;28;4925;-64
2023/07/17 07:08:27;;;;;;;;;;;;;;;;;;5028054;28;5012;-64
2023/07/17 07:10:53;;;;;;;;;;;;;;;;;;5027895;28;4474;-63
2023/07/17 07:13:21;;;;;;;;;;;;;;;;;;5027880;28;4899;-64
2023/07/17 07:15:47;;;;;;;;;;;;;;;;;;5027860;28;4450;-64
2023/07/17 07:18:12;;;;;;;;;;;;;;;;;;5026781;28;3100;-64
2023/07/17 07:20:37;;;;;;;;;;;;;;;;;;5022292;28;5083;-64
2023/07/17 07:23:03;;;;;;;;;;;;;;;;;;5025443;28;5092;-66
2023/07/17 07:25:28;;;;;;;;;;;;;;;;;;5028959;28;5201;-66
2023/07/17 07:27:53;;;;;;;;;;;;;;;;;;5028114;28;4975;-66
2023/07/17 07:30:19;;;;;;;;;;;;;;;;;;5028106;28;3069;-66
2023/07/17 07:32:44;;;;;;;;;;;;;;;;;;5020477;28;5061;-66
2023/07/17 07:35:09;;;;;;;;;;;;;;;;;;5028061;28;4459;-67
2023/07/17 07:37:34;;;;;;;;;;;;;;;;;;5028455;28;5188;-66
2023/07/17 07:40:00;;;;;;;;;;;;;;;;;;5026522;28;4582;-66
2023/07/17 07:42:25;;;;;;;;;;;;;;;;;;5021888;28;3245;-66
2023/07/17 07:44:50;;;;;;;;;;;;;;;;;;5022767;28;4926;-64
2023/07/17 07:47:15;;;;;;;;;;;;;;;;;;5021957;28;5061;-65
2023/07/17 07:49:41;;;;;;;;;;;;;;;;;;5026645;28;4971;-61
2023/07/17 07:52:06;;;;;;;;;;;;;;;;;;5028058;28;4961;-58
2023/07/17 07:54:31;;;;;;;;;;;;;;;;;;5028772;28;1759;-58
2023/07/17 07:56:57;;;;;;;;;;;;;;;;;;5023461;28;5086;-57
2023/07/17 07:59:22;;;;;;;;;;;;;;;;;;5028503;28;5012;-58
2023/07/17 08:01:47;;;;;;;;;;;;;;;;;;5021979;28;5032;-57
2023/07/17 08:04:14;;;;;;;;;;;;;;;;;;5023584;28;5195;-57
2023/07/17 08:06:39;;;;;;;;;;;;;;;;;;5017811;28;4975;-57
2023/07/17 08:09:04;;;;;;;;;;;;;;;;;;5024592;28;1269;-57
2023/07/17 08:11:29;;;;;;;;;;;;;;;;;;5024071;28;4491;-57
2023/07/17 08:13:55;;;;;;;;;;;;;;;;;;5025768;28;4665;-57
2023/07/17 08:16:20;;;;;;;;;;;;;;;;;;5023917;28;4483;-57
2023/07/17 08:18:46;;;;;;;;;;;;;;;;;;5025606;28;4640;-57
2023/07/17 08:21:12;;;;;;;;;;;;;;;;;;5028203;28;1128;-57
2023/07/17 08:23:37;;;;;;;;;;;;;;;;;;5027524;28;4955;-57
2023/07/17 08:26:02;;;;;;;;;;;;;;;;;;5027959;28;5042;-57
2023/07/17 08:28:27;;;;;;;;;;;;;;;;;;5026988;28;4887;-57
2023/07/17 08:30:53;;;;;;;;;;;;;;;;;;5028045;28;5190;-57
2023/07/17 08:33:18;;;;;;;;;;;;;;;;;;5028175;28;1289;-57
2023/07/17 08:35:43;;;;;;;;;;;;;;;;;;5025029;28;4469;-57
2023/07/17 08:38:08;;;;;;;;;;;;;;;;;;5006717;28;4610;-56
2023/07/17 08:40:35;;;;;;;;;;;;;;;;;;5014892;28;5061;-57
2023/07/17 08:43:00;;;;;;;;;;;;;;;;;;5020908;28;4483;-57
2023/07/17 08:45:26;;;;;;;;;;;;;;;;;;4996975;28;2021;-56
2023/07/17 08:47:51;;;;;;;;;;;;;;;;;;5022418;28;4643;-56
2023/07/17 08:50:16;;;;;;;;;;;;;;;;;;5026358;28;5024;-57
2023/07/17 08:52:41;;;;;;;;;;;;;;;;;;5027608;28;5045;-57
2023/07/17 08:55:07;;;;;;;;;;;;;;;;;;5029878;28;5391;-56
2023/07/17 08:57:32;;;;;;;;;;;;;;;;;;5024732;28;1305;-57
2023/07/17 08:59:58;;;;;;;;;;;;;;;;;;5021528;28;5068;-53
2023/07/17 09:02:23;;;;;;;;;;;;;;;;;;5020989;28;5076;-55
2023/07/17 09:04:48;;;;;;;;;;;;;;;;;;5016838;28;5010;-57
2023/07/17 09:07:13;;;;;;;;;;;;;;;;;;5026562;28;5105;-57
2023/07/17 09:09:39;;;;;;;;;;;;;;;;;;5026996;28;4649;-58
2023/07/17 09:12:08;;;;;;;;;;;;;;;;;;5026960;28;1156;-58
2023/07/17 09:14:33;;;;;;;;;;;;;;;;;;5025261;28;5227;-57
2023/07/17 09:17:03;;;;;;;;;;;;;;;;;;5024925;28;5024;-58
2023/07/17 09:19:30;;;;;;;;;;;;;;;;;;5026276;28;5567;-58
2023/07/17 09:21:57;;;;;;;;;;;;;;;;;;5022975;28;5089;-60
2023/07/17 09:24:22;;;;;;;;;;;;;;;;;;5022351;28;3270;-60
2023/07/17 09:26:54;;;;;;;;;;;;;;;;;;5024481;28;4452;-59
2023/07/17 09:29:21;;;;;;;;;;;;;;;;;;5024176;28;4668;-59
2023/07/17 09:31:46;;;;;;;;;;;;;;;;;;5022283;28;5180;-59
2023/07/17 09:34:12;;;;;;;;;;;;;;;;;;5025650;28;4421;-58
2023/07/17 09:36:37;;;;;;;;;;;;;;;;;;5021770;28;5161;-58
2023/07/17 09:39:04;;;;;;;;;;;;;;;;;;5025055;28;3346;-58
2023/07/17 09:41:30;;;;;;;;;;;;;;;;;;5024008;28;4477;-57
2023/07/17 09:44:05;;;;;;;;;;;;;;;;;;5025740;28;5070;-56
2023/07/17 09:46:31;;;;;;;;;;;;;;;;;;5023607;28;5090;-58
2023/07/17 09:48:57;;;;;;;;;;;;;;;;;;5026348;28;4882;-59
2023/07/17 09:51:22;;;;;;;;;;;;;;;;;;5028142;28;3346;-57
2023/07/17 09:53:47;;;;;;;;;;;;;;;;;;5026823;28;5047;-57
2023/07/17 09:56:16;;;;;;;;;;;;;;;;;;5028179;28;5118;-58
2023/07/17 09:58:43;;;;;;;;;;;;;;;;;;5030188;28;4632;-57
2023/07/17 10:01:09;;;;;;;;;;;;;;;;;;5028675;28;5553;-59
2023/07/17 10:03:34;;;;;;;;;;;;;;;;;;5020846;28;3422;-58
2023/07/17 10:05:59;;;;;;;;;;;;;;;;;;5024706;28;5035;-57
2023/07/17 10:08:24;;;;;;;;;;;;;;;;;;5029824;28;5179;-58
2023/07/17 10:10:50;;;;;;;;;;;;;;;;;;5027614;28;5306;-55
2023/07/17 10:13:15;;;;;;;;;;;;;;;;;;5025677;28;5100;-58
2023/07/17 10:15:40;;;;;;;;;;;;;;;;;;5025001;28;4672;-55
2023/07/17 10:18:12;;;;;;;;;;;;;;;;;;5023929;28;1551;-57
2023/07/17 10:20:40;;;;;;;;;;;;;;;;;;5025922;28;5085;-58
2023/07/17 10:23:09;;;;;;;;;;;;;;;;;;5026636;28;5093;-57
2023/07/17 10:25:34;;;;;;;;;;;;;;;;;;5029444;28;4759;-54
2023/07/17 10:28:00;;;;;;;;;;;;;;;;;;5025759;28;5052;-58
2023/07/17 10:30:35;;;;;;;;;;;;;;;;;;5029375;28;1307;-58
2023/07/17 10:33:06;;;;;;;;;;;;;;;;;;5027181;28;5051;-57
2023/07/17 10:35:41;;;;;;;;;;;;;;;;;;5020049;28;5091;-65
2023/07/17 10:38:10;;;;;;;;;;;;;;;;;;5025374;28;5292;-66
2023/07/17 10:40:35;;;;;;;;;;;;;;;;;;5024043;28;5123;-66
2023/07/17 10:43:14;;;;;;;;;;;;;;;;;;5024417;28;5104;-64
2023/07/17 10:45:39;;;;;;;;;;;;;;;;;;5029060;28;4463;-63
2023/07/17 10:48:06;;;;;;;;;;;;;;;;;;5026121;28;3127;-64
2023/07/17 10:50:31;;;;;;;;;;;;;;;;;;5029157;28;4971;-64
2023/07/17 10:53:03;;;;;;;;;;;;;;;;;;5029270;28;5022;-64
2023/07/17 10:55:28;;;;;;;;;;;;;;;;;;5026184;28;5477;-64
2023/07/17 10:57:54;;;;;;;;;;;;;;;;;;5022691;28;4967;-64
2023/07/17 11:00:20;;;;;;;;;;;;;;;;;;5028274;28;2297;-64
2023/07/17 11:02:45;;;;;;;;;;;;;;;;;;5024912;28;5021;-64
2023/07/17 11:05:10;;;;;;;;;;;;;;;;;;5026301;28;4477;-64
2023/07/17 11:07:35;;;;;;;;;;;;;;;;;;5029067;28;5066;-64
2023/07/17 11:10:00;;;;;;;;;;;;;;;;;;5028688;28;4434;-64
2023/07/17 11:12:26;;;;;;;;;;;;;;;;;;5029699;28;1239;-64
2023/07/17 11:14:54;;;;;;;;;;;;;;;;;;5027515;28;4997;-64
2023/07/17 11:17:20;;;;;;;;;;;;;;;;;;5028417;28;5099;-64
2023/07/17 11:19:45;;;;;;;;;;;;;;;;;;5027009;28;4631;-64
2023/07/17 11:22:11;;;;;;;;;;;;;;;;;;5025662;28;5127;-64
2023/07/17 11:24:37;;;;;;;;;;;;;;;;;;5029465;28;2017;-64
2023/07/17 11:27:02;;;;;;;;;;;;;;;;;;5021988;28;4837;-64
2023/07/17 11:29:28;;;;;;;;;;;;;;;;;;5026874;28;5097;-64
2023/07/17 11:31:57;;;;;;;;;;;;;;;;;;5022882;28;4966;-63
2023/07/17 11:34:22;;;;;;;;;;;;;;;;;;5022150;28;5242;-65
2023/07/17 11:36:48;;;;;;;;;;;;;;;;;;5025794;28;4842;-65
2023/07/17 11:39:14;;;;;;;;;;;;;;;;;;5028185;28;3470;-63
2023/07/17 11:41:52;;;;;;;;;;;;;;;;;;5026539;28;4602;-64
2023/07/17 11:44:27;;;;;;;;;;;;;;;;;;5028671;28;4861;-65
2023/07/17 11:46:53;;;;;;;;;;;;;;;;;;5025210;28;4476;-62
2023/07/17 11:49:18;;;;;;;;;;;;;;;;;;5019820;28;5122;-62
2023/07/17 11:51:43;;;;;;;;;;;;;;;;;;5022443;28;4541;-61
2023/07/17 11:54:08;;;;;;;;;;;;;;;;;;5028575;28;1116;-63
2023/07/17 11:56:40;;;;;;;;;;;;;;;;;;5021414;28;4522;-63
2023/07/17 11:59:06;;;;;;;;;;;;;;;;;;5026621;28;4601;-62
2023/07/17 12:01:32;;;;;;;;;;;;;;;;;;5020349;28;5052;-63
2023/07/17 12:04:14;;;;;;;;;;;;;;;;;;5020870;28;4996;-63
2023/07/17 12:06:39;;;;;;;;;;;;;;;;;;5022153;28;4992;-63
2023/07/17 12:09:04;;;;;;;;;;;;;;;;;;5026750;28;3286;-65
2023/07/17 12:11:29;;;;;;;;;;;;;;;;;;5028273;28;5071;-64
2023/07/17 12:13:55;;;;;;;;;;;;;;;;;;5028096;28;4969;-64
2023/07/17 12:16:20;;;;;;;;;;;;;;;;;;5027440;28;5293;-64
2023/07/17 12:18:45;;;;;;;;;;;;;;;;;;5027702;28;4874;-64
2023/07/17 12:21:11;;;;;;;;;;;;;;;;;;5028206;28;1178;-64
2023/07/17 12:23:36;;;;;;;;;;;;;;;;;;5027974;28;4638;-64
2023/07/17 12:26:01;;;;;;;;;;;;;;;;;;5027624;28;4431;-64
2023/07/17 12:28:31;;;;;;;;;;;;;;;;;;5026722;28;5197;-64
2023/07/17 12:30:56;;;;;;;;;;;;;;;;;;5022965;28;5037;-64
2023/07/17 12:33:21;;;;;;;;;;;;;;;;;;5026773;28;2169;-64
2023/07/17 12:35:46;;;;;;;;;;;;;;;;;;5027626;28;4409;-64
2023/07/17 12:38:12;;;;;;;;;;;;;;;;;;5026546;28;5001;-64
2023/07/17 12:40:37;;;;;;;;;;;;;;;;;;5024914;28;4638;-64
2023/07/17 12:43:02;;;;;;;;;;;;;;;;;;5027549;28;4473;-64
2023/07/17 12:45:28;;;;;;;;;;;;;;;;;;5026631;28;3207;-64
2023/07/17 12:47:53;;;;;;;;;;;;;;;;;;5018025;28;4958;-64
2023/07/17 12:50:18;;;;;;;;;;;;;;;;;;5025216;28;4987;-64
2023/07/17 12:52:43;;;;;;;;;;;;;;;;;;5025349;28;5070;-64
2023/07/17 12:55:09;;;;;;;;;;;;;;;;;;5025642;28;4863;-64
2023/07/17 12:57:34;;;;;;;;;;;;;;;;;;5028261;28;1417;-64
2023/07/17 13:00:00;;;;;;;;;;;;;;;;;;5021140;28;4931;-64
2023/07/17 13:02:25;;;;;;;;;;;;;;;;;;5025873;28;5213;-64
2023/07/17 13:04:50;;;;;;;;;;;;;;;;;;5025317;28;5028;-64
2023/07/17 13:07:15;;;;;;;;;;;;;;;;;;5026936;28;5022;-64
2023/07/17 13:09:41;;;;;;;;;;;;;;;;;;5024744;28;4533;-64
2023/07/17 13:12:06;;;;;;;;;;;;;;;;;;5017612;28;3303;-65
2023/07/17 13:14:31;;;;;;;;;;;;;;;;;;5023300;28;4536;-64
2023/07/17 13:16:57;;;;;;;;;;;;;;;;;;5023626;28;4493;-64
2023/07/17 13:19:22;;;;;;;;;;;;;;;;;;5027834;28;4927;-64
2023/07/17 13:21:47;;;;;;;;;;;;;;;;;;5021752;28;4703;-64
2023/07/17 13:24:12;;;;;;;;;;;;;;;;;;5026349;28;3188;-64
2023/07/17 13:26:38;;;;;;;;;;;;;;;;;;5031458;28;5404;-63
2023/07/17 13:29:07;;;;;;;;;;;;;;;;;;5026197;28;5143;-64
2023/07/17 13:31:32;;;;;;;;;;;;;;;;;;5025968;28;5029;-64
2023/07/17 13:33:57;;;;;;;;;;;;;;;;;;5013818;28;5151;-64
2023/07/17 13:36:22;;;;;;;;;;;;;;;;;;5029085;28;3231;-64
2023/07/17 13:38:48;;;;;;;;;;;;;;;;;;5026840;28;4984;-64
2023/07/17 13:41:18;;;;;;;;;;;;;;;;;;5031339;28;4596;-64
2023/07/17 13:43:43;;;;;;;;;;;;;;;;;;5030074;28;5147;-63
2023/07/17 13:46:09;;;;;;;;;;;;;;;;;;5027411;28;5147;-64
2023/07/17 13:48:34;;;;;;;;;;;;;;;;;;5026670;28;3370;-64
2023/07/17 13:50:59;;;;;;;;;;;;;;;;;;5024882;28;4604;-65
2023/07/17 13:53:25;;;;;;;;;;;;;;;;;;5022947;28;5154;-65
2023/07/17 13:55:50;;;;;;;;;;;;;;;;;;5024241;28;6270;-65
2023/07/17 13:58:15;;;;;;;;;;;;;;;;;;5030174;28;4543;-65
2023/07/17 14:00:40;;;;;;;;;;;;;;;;;;5027104;28;5222;-64
2023/07/17 14:03:06;;;;;;;;;;;;;;;;;;5030451;28;5080;-65
2023/07/17 14:05:31;;;;;;;;;;;;;;;;;;5029834;28;4708;-65
2023/07/17 14:07:56;;;;;;;;;;;;;;;;;;5026292;28;4517;-65
2023/07/17 14:10:22;;;;;;;;;;;;;;;;;;5019210;28;5036;-64
2023/07/17 14:12:47;;;;;;;;;;;;;;;;;;5026881;28;4513;-64
2023/07/17 14:15:13;;;;;;;;;;;;;;;;;;5024238;28;3255;-64
2023/07/17 14:17:38;;;;;;;;;;;;;;;;;;5026450;28;5003;-65
2023/07/17 14:20:03;;;;;;;;;;;;;;;;;;5027256;28;4957;-64
2023/07/17 14:22:28;;;;;;;;;;;;;;;;;;5028539;28;4549;-64
2023/07/17 14:24:54;;;;;;;;;;;;;;;;;;5023757;28;4939;-64
2023/07/17 14:27:19;;;;;;;;;;;;;;;;;;5022738;28;3683;-64
2023/07/17 14:29:46;;;;;;;;;;;;;;;;;;5028752;28;5146;-63
2023/07/17 14:32:11;;;;;;;;;;;;;;;;;;5022355;28;5093;-63
2023/07/17 14:34:37;;;;;;;;;;;;;;;;;;5024500;28;4509;-64
2023/07/17 14:37:03;;;;;;;;;;;;;;;;;;5024789;28;4943;-64
2023/07/17 14:39:28;;;;;;;;;;;;;;;;;;5025825;28;3629;-64
2023/07/17 14:41:53;;;;;;;;;;;;;;;;;;5021660;28;4808;-65
2023/07/17 14:44:18;;;;;;;;;;;;;;;;;;5023602;28;5121;-64
2023/07/17 14:46:44;;;;;;;;;;;;;;;;;;5023578;28;5132;-52
2023/07/17 14:49:09;;;;;;;;;;;;;;;;;;5023499;28;4917;-51
2023/07/17 14:51:34;;;;;;;;;;;;;;;;;;5024886;28;3708;-54
2023/07/17 14:53:59;;;;;;;;;;;;;;;;;;5022999;28;5042;-49
2023/07/17 14:56:24;;;;;;;;;;;;;;;;;;5021351;28;4555;-64
2023/07/17 14:58:50;;;;;;;;;;;;;;;;;;5025081;28;5215;-62
2023/07/17 15:01:15;;;;;;;;;;;;;;;;;;5028100;28;4932;-65
2023/07/17 15:03:40;;;;;;;;;;;;;;;;;;5024532;28;5058;-66
2023/07/17 15:06:05;;;;;;;;;;;;;;;;;;5023290;28;3212;-65
2023/07/17 15:08:31;;;;;;;;;;;;;;;;;;5026678;28;5016;-66
2023/07/17 15:10:56;;;;;;;;;;;;;;;;;;5027080;28;5216;-67
2023/07/17 15:13:21;;;;;;;;;;;;;;;;;;5019253;28;4675;-67
2023/07/17 15:15:46;;;;;;;;;;;;;;;;;;5020731;28;5084;-69
2023/07/17 15:18:12;;;;;;;;;;;;;;;;;;5022554;28;3705;-57
2023/07/17 15:20:37;;;;;;;;;;;;;;;;;;5028279;28;5204;-56
2023/07/17 15:23:02;;;;;;;;;;;;;;;;;;5022921;28;5049;-57
2023/07/17 15:25:27;;;;;;;;;;;;;;;;;;5026968;28;5171;-57
2023/07/17 15:27:53;;;;;;;;;;;;;;;;;;5026112;28;4690;-56
2023/07/17 15:30:18;;;;;;;;;;;;;;;;;;5025822;28;3746;-56
2023/07/17 15:32:43;;;;;;;;;;;;;;;;;;5024107;28;4430;-57
2023/07/17 15:35:09;;;;;;;;;;;;;;;;;;5021962;28;5088;-58
2023/07/17 15:37:34;;;;;;;;;;;;;;;;;;5024436;28;4922;-57
2023/07/17 15:40:00;;;;;;;;;;;;;;;;;;5023260;28;4679;-69
2023/07/17 15:42:25;;;;;;;;;;;;;;;;;;5025308;28;3379;-68
2023/07/17 15:44:50;;;;;;;;;;;;;;;;;;5022504;28;5015;-70
2023/07/17 15:47:15;;;;;;;;;;;;;;;;;;5025903;28;5294;-68
2023/07/17 15:49:41;;;;;;;;;;;;;;;;;;5024777;28;5066;-67
2023/07/17 15:52:06;;;;;;;;;;;;;;;;;;5027370;28;4990;-67
2023/07/17 15:54:31;;;;;;;;;;;;;;;;;;5025881;28;3241;-69
2023/07/17 15:56:57;;;;;;;;;;;;;;;;;;5021445;28;5255;-57
2023/07/17 15:59:22;;;;;;;;;;;;;;;;;;5020178;28;5060;-57
2023/07/17 16:01:49;;;;;;;;;;;;;;;;;;5026023;28;5116;-54
2023/07/17 16:04:14;;;;;;;;;;;;;;;;;;5026370;28;4829;-57
2023/07/17 16:06:39;;;;;;;;;;;;;;;;;;5020568;28;5235;-55
2023/07/17 16:09:05;;;;;;;;;;;;;;;;;;5019800;28;3823;-54
2023/07/17 16:11:30;;;;;;;;;;;;;;;;;;5020663;28;4505;-68
2023/07/17 16:13:55;;;;;;;;;;;;;;;;;;5020281;28;5081;-68
2023/07/17 16:16:21;;;;;;;;;;;;;;;;;;5025136;28;5139;-67
2023/07/17 16:18:46;;;;;;;;;;;;;;;;;;5024594;28;4733;-67
2023/07/17 16:21:11;;;;;;;;;;;;;;;;;;5023751;28;3757;-68
2023/07/17 16:23:36;;;;;;;;;;;;;;;;;;5024448;28;4658;-67
2023/07/17 16:26:04;;;;;;;;;;;;;;;;;;5017948;28;5043;-68
2023/07/17 16:28:30;;;;;;;;;;;;;;;;;;5020780;28;5154;-68
2023/07/17 16:30:55;;;;;;;;;;;;;;;;;;5021895;28;4879;-64
2023/07/17 16:33:20;;;;;;;;;;;;;;;;;;5026666;28;1370;-69
2023/07/17 16:35:45;;;;;;;;;;;;;;;;;;5020721;28;5182;-69
2023/07/17 16:38:11;;;;;;;;;;;;;;;;;;5025925;28;4488;-69
2023/07/17 16:40:36;;;;;;;;;;;;;;;;;;5024545;28;5167;-68
2023/07/17 16:43:01;;;;;;;;;;;;;;;;;;5023833;28;4674;-69
2023/07/17 16:45:27;;;;;;;;;;;;;;;;;;5023229;28;3752;-70
2023/07/17 16:47:52;;;;;;;;;;;;;;;;;;5020755;28;5045;-69
2023/07/17 16:50:17;;;;;;;;;;;;;;;;;;5017179;28;4673;-70
2023/07/17 16:52:42;;;;;;;;;;;;;;;;;;5009152;28;5122;-70